Jamestown, North Dakota
Current Conditions -  °F | °C
As of 11:56 PM on Friday 24 Oct 2014 (Local Time) from KJMS Reporting Station
Clear Clear  
Wind Chill: 43°   Ceiling: Unl
Heat Index: 47°   Visibility: 10mi
Dew Point: 33°   Wind: 8mph
Humidity: 59%   Direction: 290°WNW
Pressure: 29.99"   Gusts: NA
Location:  46.91°N, 98.71°W
Report Text: KJMS 250456Z AUTO 29007KT 10SM CLR 08/01 A2999 RMK AO2 SLP157 T00830006
Loading
Personal Weather Stations






























Interactive Weather Map
Tropical Storm Tracking
New forecast layout! Learn more

10-Day Weather Forecast

Advertisements
Track Severe Weather on mobile